Lifter — V2DD4 — position and weather

sailwx.info

Track history (hours):
 
Tides and Currents Weather Stations Pressure Air Temp Water Temp Dewpoint Dewpoint Depression Visibility Wind Speed Wind Dir Waves Ship Positions

Lifter

Last reported at 2017-Feb-20 23:33 UTC. Time now 2017-Feb-21 23:31 UTC.
Position N 36°43' E 014°19'.

Length 119 m; draft 7 m.

Type: Ship (hazmat cat A). MMSI: 305175000.

Date/timePositionNaut miles runAvg speedWind from/ knotsBaromVisibWave heightAir tempDewpointWater temp
2017-Feb-20 23:33N 36°43' E 014°19'1312.7
2017-Feb-20 22:33N 36°48' E 014°05'1212.4
2017-Feb-20 21:33N 36°53' E 013°51'1312.5
2017-Feb-20 20:33N 36°59' E 013°37'  
2017-Feb-17 19:31N 35°59' W 005°12'1313.4
2017-Feb-17 18:33N 35°57' W 005°27'1211.7
2017-Feb-17 17:33N 35°55' W 005°42'22210.6
2017-Feb-16 20:33N 37°40' W 009°46'1212.5
2017-Feb-16 19:33N 37°52' W 009°50'1212.5
2017-Feb-16 18:33N 38°04' W 009°55'1212.4
2017-Feb-16 17:33N 38°16' W 009°59'1212.3
2017-Feb-16 16:33N 38°28' W 010°02'1212.4
2017-Feb-16 15:33N 38°40' W 010°05'1212.3
2017-Feb-16 14:33N 38°52' W 010°06'1212.2
2017-Feb-16 13:33N 39°04' W 010°06'1312.5
2017-Feb-16 12:33N 39°17' W 010°06'1412.3
2017-Feb-16 11:27N 39°30' W 010°06'318 9.4
2017-Feb-15 01:33N 43°43' W 005°47'1212.2
2017-Feb-15 00:33N 43°41' W 005°30'  
2017-Feb-11 15:14N 49°43' W 003°32'913.5
2017-Feb-11 14:34N 49°48' W 003°20'1514.6
2017-Feb-11 13:34N 49°56' W 003°01'4113.6
2017-Feb-11 10:33N 50°06' W 001°59'1010.2
2017-Feb-11 09:33N 50°09' W 001°44'9 9.0
2017-Feb-11 08:33N 50°12' W 001°31'9 8.7
2017-Feb-11 07:33N 50°15' W 001°18'3511.4
2017-Feb-11 04:31N 50°24' W 000°26'1314.0
2017-Feb-11 03:33N 50°28' W 000°06'1414.1
2017-Feb-11 02:33N 50°31' E 000°16'1413.6
2017-Feb-11 01:30N 50°36' E 000°37'1212.7
2017-Feb-11 00:33N 50°43' E 000°53'  
Track history (hours):
 
Tides and Currents Weather Stations Pressure Air Temp Water Temp Dewpoint Dewpoint Depression Visibility Wind Speed Wind Dir Waves Ship Positions

Lifter

Last reported at 2017-Feb-20 23:33 UTC. Time now 2017-Feb-21 23:31 UTC.
Position N 36°43' E 014°19'.

Length 119 m; draft 7 m.

Type: Ship (hazmat cat A). MMSI: 305175000.

Date/timePositionNaut miles runAvg speedWind from/ knotsBaromVisibWave heightAir tempDewpointWater temp
2017-Feb-20 23:33N 36°43' E 014°19'1312.7
2017-Feb-20 22:33N 36°48' E 014°05'1212.4
2017-Feb-20 21:33N 36°53' E 013°51'1312.5
2017-Feb-20 20:33N 36°59' E 013°37'  
2017-Feb-17 19:31N 35°59' W 005°12'1313.4
2017-Feb-17 18:33N 35°57' W 005°27'1211.7
2017-Feb-17 17:33N 35°55' W 005°42'22210.6
2017-Feb-16 20:33N 37°40' W 009°46'1212.5
2017-Feb-16 19:33N 37°52' W 009°50'1212.5
2017-Feb-16 18:33N 38°04' W 009°55'1212.4
2017-Feb-16 17:33N 38°16' W 009°59'1212.3
2017-Feb-16 16:33N 38°28' W 010°02'1212.4
2017-Feb-16 15:33N 38°40' W 010°05'1212.3
2017-Feb-16 14:33N 38°52' W 010°06'1212.2
2017-Feb-16 13:33N 39°04' W 010°06'1312.5
2017-Feb-16 12:33N 39°17' W 010°06'1412.3
2017-Feb-16 11:27N 39°30' W 010°06'318 9.4
2017-Feb-15 01:33N 43°43' W 005°47'1212.2
2017-Feb-15 00:33N 43°41' W 005°30'  
2017-Feb-11 15:14N 49°43' W 003°32'913.5
2017-Feb-11 14:34N 49°48' W 003°20'1514.6
2017-Feb-11 13:34N 49°56' W 003°01'4113.6
2017-Feb-11 10:33N 50°06' W 001°59'1010.2
2017-Feb-11 09:33N 50°09' W 001°44'9 9.0
2017-Feb-11 08:33N 50°12' W 001°31'9 8.7
2017-Feb-11 07:33N 50°15' W 001°18'3511.4
2017-Feb-11 04:31N 50°24' W 000°26'1314.0
2017-Feb-11 03:33N 50°28' W 000°06'1414.1
2017-Feb-11 02:33N 50°31' E 000°16'1413.6
2017-Feb-11 01:30N 50°36' E 000°37'1212.7
2017-Feb-11 00:33N 50°43' E 000°53'  

Dump ship's entire track history